sensor_id;sensor_type;location;lat;lon;timestamp;pressure;altitude;pressure_sealevel;temperature;humidity
70925;BME280;58577;52.410;13.242;2022-10-31T00:00:01;101387.91;;;8.55;100.00
70925;BME280;58577;52.410;13.242;2022-10-31T00:02:46;101391.94;;;8.60;100.00
70925;BME280;58577;52.410;13.242;2022-10-31T00:05:32;101394.97;;;8.56;100.00
70925;BME280;58577;52.410;13.242;2022-10-31T00:08:18;101399.13;;;8.71;100.00
70925;BME280;58577;52.410;13.242;2022-10-31T00:11:08;101397.38;;;8.59;100.00
70925;BME280;58577;52.410;13.242;2022-10-31T00:13:54;101396.41;;;8.49;100.00
70925;BME280;58577;52.410;13.242;2022-10-31T00:16:40;101403.69;;;8.46;100.00
70925;BME280;58577;52.410;13.242;2022-10-31T00:19:27;101407.75;;;8.39;100.00
70925;BME280;58577;52.410;13.242;2022-10-31T00:22:12;101406.06;;;8.38;100.00
70925;BME280;58577;52.410;13.242;2022-10-31T00:24:58;101409.69;;;8.37;100.00
70925;BME280;58577;52.410;13.242;2022-10-31T00:27:44;101405.31;;;8.36;100.00
70925;BME280;58577;52.410;13.242;2022-10-31T00:30:30;101409.91;;;8.34;100.00
70925;BME280;58577;52.410;13.242;2022-10-31T00:33:16;101410.81;;;8.35;100.00
70925;BME280;58577;52.410;13.242;2022-10-31T00:36:02;101417.00;;;8.35;100.00
70925;BME280;58577;52.410;13.242;2022-10-31T00:38:48;101419.78;;;8.34;100.00
70925;BME280;58577;52.410;13.242;2022-10-31T00:41:34;101419.88;;;8.32;100.00
70925;BME280;58577;52.410;13.242;2022-10-31T00:44:19;101426.94;;;8.33;100.00
70925;BME280;58577;52.410;13.242;2022-10-31T00:47:05;101425.38;;;8.31;100.00
70925;BME280;58577;52.410;13.242;2022-10-31T00:49:51;101427.16;;;8.30;100.00
70925;BME280;58577;52.410;13.242;2022-10-31T00:52:37;101429.63;;;8.33;100.00
70925;BME280;58577;52.410;13.242;2022-10-31T00:55:23;101437.66;;;8.33;100.00
70925;BME280;58577;52.410;13.242;2022-10-31T00:58:08;101436.81;;;8.33;100.00
70925;BME280;58577;52.410;13.242;2022-10-31T01:00:54;101439.34;;;8.34;100.00
70925;BME280;58577;52.410;13.242;2022-10-31T01:03:42;101439.22;;;8.36;100.00
70925;BME280;58577;52.410;13.242;2022-10-31T01:06:31;101437.84;;;8.43;100.00
70925;BME280;58577;52.410;13.242;2022-10-31T01:09:17;101438.56;;;8.45;100.00
70925;BME280;58577;52.410;13.242;2022-10-31T01:12:03;101441.34;;;8.43;100.00
70925;BME280;58577;52.410;13.242;2022-10-31T01:14:48;101439.53;;;8.44;100.00
70925;BME280;58577;52.410;13.242;2022-10-31T01:17:37;101441.34;;;8.43;100.00
70925;BME280;58577;52.410;13.242;2022-10-31T01:20:23;101439.41;;;8.45;100.00
70925;BME280;58577;52.410;13.242;2022-10-31T01:23:08;101441.25;;;8.45;100.00
70925;BME280;58577;52.410;13.242;2022-10-31T01:26:07;101442.09;;;8.45;100.00
70925;BME280;58577;52.410;13.242;2022-10-31T01:28:55;101438.56;;;8.45;100.00
70925;BME280;58577;52.410;13.242;2022-10-31T01:31:41;101445.38;;;8.49;100.00
70925;BME280;58577;52.410;13.242;2022-10-31T01:34:27;101445.91;;;8.54;100.00
70925;BME280;58577;52.410;13.242;2022-10-31T01:37:13;101442.50;;;8.52;100.00
70925;BME280;58577;52.410;13.242;2022-10-31T01:39:59;101440.16;;;8.48;100.00
70925;BME280;58577;52.410;13.242;2022-10-31T01:42:45;101442.09;;;8.45;100.00
70925;BME280;58577;52.410;13.242;2022-10-31T01:45:31;101436.84;;;8.44;100.00
70925;BME280;58577;52.410;13.242;2022-10-31T01:48:20;101447.31;;;8.47;100.00
70925;BME280;58577;52.410;13.242;2022-10-31T01:51:08;101453.78;;;8.44;100.00
70925;BME280;58577;52.410;13.242;2022-10-31T01:54:01;101453.78;;;8.44;100.00
70925;BME280;58577;52.410;13.242;2022-10-31T01:56:50;101454.06;;;8.40;100.00
70925;BME280;58577;52.410;13.242;2022-10-31T01:59:43;101447.13;;;8.37;100.00
70925;BME280;58577;52.410;13.242;2022-10-31T02:02:30;101446.63;;;8.32;100.00
70925;BME280;58577;52.410;13.242;2022-10-31T02:05:19;101457.22;;;8.34;100.00
70925;BME280;58577;52.410;13.242;2022-10-31T02:10:56;101450.03;;;8.34;100.00
70925;BME280;58577;52.410;13.242;2022-10-31T02:13:43;101450.16;;;8.33;100.00
70925;BME280;58577;52.410;13.242;2022-10-31T02:16:29;101446.75;;;8.31;100.00
70925;BME280;58577;52.410;13.242;2022-10-31T02:19:23;101437.97;;;8.28;100.00
70925;BME280;58577;52.410;13.242;2022-10-31T02:22:21;101440.78;;;8.27;100.00
70925;BME280;58577;52.410;13.242;2022-10-31T02:25:35;101444.94;;;8.31;100.00
70925;BME280;58577;52.410;13.242;2022-10-31T02:28:46;101448.28;;;8.22;100.00
70925;BME280;58577;52.410;13.242;2022-10-31T02:31:42;101452.16;;;8.18;100.00
70925;BME280;58577;52.410;13.242;2022-10-31T02:37:55;101450.91;;;8.11;100.00
70925;BME280;58577;52.410;13.242;2022-10-31T02:44:08;101461.84;;;8.07;100.00
70925;BME280;58577;52.410;13.242;2022-10-31T02:47:03;101464.84;;;8.03;100.00
70925;BME280;58577;52.410;13.242;2022-10-31T02:50:19;101466.66;;;8.02;100.00
70925;BME280;58577;52.410;13.242;2022-10-31T02:53:06;101468.59;;;8.00;100.00
70925;BME280;58577;52.410;13.242;2022-10-31T02:56:02;101466.13;;;7.97;100.00
70925;BME280;58577;52.410;13.242;2022-10-31T02:58:53;101470.41;;;8.00;100.00
70925;BME280;58577;52.410;13.242;2022-10-31T03:11:24;101479.28;;;8.00;100.00
70925;BME280;58577;52.410;13.242;2022-10-31T03:14:20;101486.66;;;7.97;100.00
70925;BME280;58577;52.410;13.242;2022-10-31T03:17:20;101480.13;;;8.01;100.00
70925;BME280;58577;52.410;13.242;2022-10-31T03:20:08;101478.94;;;8.05;100.00
70925;BME280;58577;52.410;13.242;2022-10-31T03:22:56;101489.41;;;8.08;100.00
70925;BME280;58577;52.410;13.242;2022-10-31T03:25:43;101486.00;;;8.06;100.00
70925;BME280;58577;52.410;13.242;2022-10-31T03:28:37;101489.50;;;8.06;100.00
70925;BME280;58577;52.410;13.242;2022-10-31T03:31:28;101497.75;;;8.03;100.00
70925;BME280;58577;52.410;13.242;2022-10-31T03:34:18;101500.56;;;8.02;100.00
70925;BME280;58577;52.410;13.242;2022-10-31T03:37:07;101504.19;;;8.01;100.00
70925;BME280;58577;52.410;13.242;2022-10-31T03:39:55;101502.69;;;7.97;100.00
70925;BME280;58577;52.410;13.242;2022-10-31T03:42:51;101509.88;;;7.96;100.00
70925;BME280;58577;52.410;13.242;2022-10-31T03:45:44;101506.31;;;7.96;100.00
70925;BME280;58577;52.410;13.242;2022-10-31T03:48:31;101509.13;;;7.94;100.00
70925;BME280;58577;52.410;13.242;2022-10-31T03:54:52;101508.50;;;7.91;100.00
70925;BME280;58577;52.410;13.242;2022-10-31T03:57:43;101507.66;;;7.90;100.00
70925;BME280;58577;52.410;13.242;2022-10-31T04:00:32;101512.25;;;7.88;100.00
70925;BME280;58577;52.410;13.242;2022-10-31T04:03:26;101522.16;;;7.86;100.00
70925;BME280;58577;52.410;13.242;2022-10-31T04:06:16;101512.47;;;7.85;100.00
70925;BME280;58577;52.410;13.242;2022-10-31T04:09:05;101522.41;;;7.83;100.00
70925;BME280;58577;52.410;13.242;2022-10-31T04:11:55;101509.69;;;7.86;100.00
70925;BME280;58577;52.410;13.242;2022-10-31T04:14:55;101514.03;;;7.87;100.00
70925;BME280;58577;52.410;13.242;2022-10-31T04:17:43;101526.66;;;7.85;100.00
70925;BME280;58577;52.410;13.242;2022-10-31T04:20:33;101522.69;;;7.91;100.00
70925;BME280;58577;52.410;13.242;2022-10-31T04:23:22;101534.78;;;7.84;100.00
70925;BME280;58577;52.410;13.242;2022-10-31T04:26:12;101525.59;;;7.88;100.00
70925;BME280;58577;52.410;13.242;2022-10-31T04:28:58;101530.19;;;7.86;100.00
70925;BME280;58577;52.410;13.242;2022-10-31T04:31:46;101531.81;;;7.88;100.00
70925;BME280;58577;52.410;13.242;2022-10-31T04:34:31;101530.97;;;7.88;100.00
70925;BME280;58577;52.410;13.242;2022-10-31T04:37:17;101522.94;;;7.88;100.00
70925;BME280;58577;52.410;13.242;2022-10-31T04:40:03;101537.78;;;7.92;100.00
70925;BME280;58577;52.410;13.242;2022-10-31T04:43:28;101536.06;;;7.91;100.00
70925;BME280;58577;52.410;13.242;2022-10-31T04:46:13;101527.69;;;7.96;100.00
70925;BME280;58577;52.410;13.242;2022-10-31T04:48:59;101533.91;;;7.96;100.00
70925;BME280;58577;52.410;13.242;2022-10-31T04:51:45;101533.56;;;8.01;100.00
70925;BME280;58577;52.410;13.242;2022-10-31T04:54:32;101532.72;;;8.00;100.00
70925;BME280;58577;52.410;13.242;2022-10-31T04:57:44;101538.53;;;7.94;100.00
70925;BME280;58577;52.410;13.242;2022-10-31T05:00:30;101537.53;;;7.95;100.00
70925;BME280;58577;52.410;13.242;2022-10-31T05:03:16;101543.72;;;7.96;100.00
70925;BME280;58577;52.410;13.242;2022-10-31T05:06:02;101534.03;;;7.95;100.00
70925;BME280;58577;52.410;13.242;2022-10-31T05:08:48;101544.19;;;7.90;100.00
70925;BME280;58577;52.410;13.242;2022-10-31T05:11:34;101543.69;;;7.84;100.00
70925;BME280;58577;52.410;13.242;2022-10-31T05:14:34;101545.72;;;7.81;100.00
70925;BME280;58577;52.410;13.242;2022-10-31T05:17:38;101548.47;;;7.79;100.00
70925;BME280;58577;52.410;13.242;2022-10-31T05:20:49;101548.94;;;7.73;100.00
70925;BME280;58577;52.410;13.242;2022-10-31T05:23:43;101551.59;;;7.73;100.00
70925;BME280;58577;52.410;13.242;2022-10-31T05:26:28;101551.16;;;7.79;100.00
70925;BME280;58577;52.410;13.242;2022-10-31T05:29:15;101549.56;;;7.77;100.00
70925;BME280;58577;52.410;13.242;2022-10-31T05:32:00;101554.03;;;7.76;100.00
70925;BME280;58577;52.410;13.242;2022-10-31T05:35:24;101561.84;;;7.79;100.00
70925;BME280;58577;52.410;13.242;2022-10-31T05:38:46;101567.28;;;7.78;100.00
70925;BME280;58577;52.410;13.242;2022-10-31T05:41:44;101565.06;;;7.72;100.00
70925;BME280;58577;52.410;13.242;2022-10-31T05:44:39;101552.88;;;7.67;100.00
70925;BME280;58577;52.410;13.242;2022-10-31T05:47:33;101559.81;;;7.70;100.00
70925;BME280;58577;52.410;13.242;2022-10-31T05:50:37;101566.00;;;7.71;100.00
70925;BME280;58577;52.410;13.242;2022-10-31T05:53:28;101557.13;;;7.70;100.00
70925;BME280;58577;52.410;13.242;2022-10-31T05:56:14;101562.59;;;7.68;100.00
70925;BME280;58577;52.410;13.242;2022-10-31T05:59:00;101555.56;;;7.67;100.00
70925;BME280;58577;52.410;13.242;2022-10-31T06:01:46;101568.66;;;7.71;100.00
70925;BME280;58577;52.410;13.242;2022-10-31T06:04:45;101569.84;;;7.79;100.00
70925;BME280;58577;52.410;13.242;2022-10-31T06:07:35;101566.34;;;7.79;100.00
70925;BME280;58577;52.410;13.242;2022-10-31T06:10:22;101567.28;;;7.78;100.00
70925;BME280;58577;52.410;13.242;2022-10-31T06:13:13;101574.56;;;7.76;100.00
70925;BME280;58577;52.410;13.242;2022-10-31T06:16:11;101576.28;;;7.77;100.00
70925;BME280;58577;52.410;13.242;2022-10-31T06:18:58;101576.78;;;7.82;100.00
70925;BME280;58577;52.410;13.242;2022-10-31T06:21:45;101580.94;;;7.86;100.00
70925;BME280;58577;52.410;13.242;2022-10-31T06:24:31;101584.16;;;7.91;100.00
70925;BME280;58577;52.410;13.242;2022-10-31T06:27:49;101588.22;;;7.97;100.00
70925;BME280;58577;52.410;13.242;2022-10-31T06:30:35;101588.94;;;7.99;100.00
70925;BME280;58577;52.410;13.242;2022-10-31T06:33:22;101590.44;;;8.03;100.00
70925;BME280;58577;52.410;13.242;2022-10-31T06:36:16;101589.59;;;8.02;100.00
70925;BME280;58577;52.410;13.242;2022-10-31T06:39:01;101599.31;;;8.03;100.00
70925;BME280;58577;52.410;13.242;2022-10-31T06:41:47;101600.81;;;8.07;100.00
70925;BME280;58577;52.410;13.242;2022-10-31T06:44:34;101602.31;;;8.12;100.00
70925;BME280;58577;52.410;13.242;2022-10-31T06:47:39;101601.84;;;8.18;100.00
70925;BME280;58577;52.410;13.242;2022-10-31T06:50:27;101606.75;;;8.24;100.00
70925;BME280;58577;52.410;13.242;2022-10-31T06:53:13;101601.69;;;8.32;100.00
70925;BME280;58577;52.410;13.242;2022-10-31T06:55:59;101607.38;;;8.40;100.00
70925;BME280;58577;52.410;13.242;2022-10-31T06:58:45;101616.75;;;8.59;100.00
70925;BME280;58577;52.410;13.242;2022-10-31T07:01:32;101623.25;;;8.68;100.00
70925;BME280;58577;52.410;13.242;2022-10-31T07:04:18;101623.16;;;8.80;100.00
70925;BME280;58577;52.410;13.242;2022-10-31T07:07:04;101620.34;;;8.95;100.00
70925;BME280;58577;52.410;13.242;2022-10-31T07:09:51;101619.91;;;9.12;100.00
70925;BME280;58577;52.410;13.242;2022-10-31T07:12:41;101617.50;;;9.20;100.00
70925;BME280;58577;52.410;13.242;2022-10-31T07:15:29;101627.28;;;9.33;100.00
70925;BME280;58577;52.410;13.242;2022-10-31T07:18:17;101625.34;;;9.46;100.00
70925;BME280;58577;52.410;13.242;2022-10-31T07:21:03;101631.16;;;9.64;100.00
70925;BME280;58577;52.410;13.242;2022-10-31T07:23:49;101633.97;;;9.85;100.00
70925;BME280;58577;52.410;13.242;2022-10-31T07:26:53;101627.03;;;10.05;100.00
70925;BME280;58577;52.410;13.242;2022-10-31T07:29:39;101624.69;;;10.23;100.00
70925;BME280;58577;52.410;13.242;2022-10-31T07:32:27;101627.00;;;10.39;100.00
70925;BME280;58577;52.410;13.242;2022-10-31T07:35:19;101629.56;;;10.52;100.00
70925;BME280;58577;52.410;13.242;2022-10-31T07:38:07;101629.28;;;10.66;100.00
70925;BME280;58577;52.410;13.242;2022-10-31T07:40:54;101632.19;;;10.86;100.00
70925;BME280;58577;52.410;13.242;2022-10-31T07:43:39;101648.66;;;11.13;100.00
70925;BME280;58577;52.410;13.242;2022-10-31T07:46:37;101642.00;;;11.29;100.00
70925;BME280;58577;52.410;13.242;2022-10-31T07:49:41;101643.50;;;11.43;100.00
70925;BME280;58577;52.410;13.242;2022-10-31T07:52:46;101639.75;;;11.55;100.00
70925;BME280;58577;52.410;13.242;2022-10-31T07:55:50;101656.22;;;11.61;100.00
70925;BME280;58577;52.410;13.242;2022-10-31T07:58:38;101649.72;;;11.64;100.00
70925;BME280;58577;52.410;13.242;2022-10-31T08:01:23;101651.44;;;11.65;100.00
70925;BME280;58577;52.410;13.242;2022-10-31T08:04:29;101655.69;;;11.68;100.00
70925;BME280;58577;52.410;13.242;2022-10-31T08:07:41;101656.88;;;11.75;100.00
70925;BME280;58577;52.410;13.242;2022-10-31T08:10:36;101667.50;;;11.76;100.00
70925;BME280;58577;52.410;13.242;2022-10-31T08:13:22;101667.94;;;11.81;100.00
70925;BME280;58577;52.410;13.242;2022-10-31T08:16:10;101674.41;;;11.90;100.00
70925;BME280;58577;52.410;13.242;2022-10-31T08:19:03;101676.56;;;11.96;100.00
70925;BME280;58577;52.410;13.242;2022-10-31T08:21:55;101673.47;;;12.01;100.00
70925;BME280;58577;52.410;13.242;2022-10-31T08:24:41;101673.22;;;12.04;100.00
70925;BME280;58577;52.410;13.242;2022-10-31T08:27:27;101671.38;;;12.05;100.00
70925;BME280;58577;52.410;13.242;2022-10-31T08:30:15;101661.78;;;12.12;100.00
70925;BME280;58577;52.410;13.242;2022-10-31T08:33:15;101663.91;;;12.18;100.00
70925;BME280;58577;52.410;13.242;2022-10-31T08:36:20;101673.44;;;12.22;100.00
70925;BME280;58577;52.410;13.242;2022-10-31T08:39:12;101665.34;;;12.22;100.00
70925;BME280;58577;52.410;13.242;2022-10-31T08:41:58;101668.03;;;12.22;100.00
70925;BME280;58577;52.410;13.242;2022-10-31T08:44:44;101678.03;;;12.41;100.00
70925;BME280;58577;52.410;13.242;2022-10-31T08:47:30;101676.81;;;12.55;100.00
70925;BME280;58577;52.410;13.242;2022-10-31T08:50:16;101683.88;;;12.46;100.00
70925;BME280;58577;52.410;13.242;2022-10-31T08:53:10;101687.88;;;12.62;100.00
70925;BME280;58577;52.410;13.242;2022-10-31T08:55:58;101689.34;;;12.85;100.00
70925;BME280;58577;52.410;13.242;2022-10-31T08:58:44;101683.91;;;13.35;100.00
70925;BME280;58577;52.410;13.242;2022-10-31T09:01:31;101681.88;;;13.18;100.00
70925;BME280;58577;52.410;13.242;2022-10-31T09:04:17;101687.53;;;13.05;100.00
70925;BME280;58577;52.410;13.242;2022-10-31T09:07:03;101694.31;;;12.99;100.00
70925;BME280;58577;52.410;13.242;2022-10-31T09:09:49;101695.34;;;12.98;100.00
70925;BME280;58577;52.410;13.242;2022-10-31T09:12:36;101696.03;;;13.01;100.00
70925;BME280;58577;52.410;13.242;2022-10-31T09:15:49;101698.03;;;13.08;100.00
70925;BME280;58577;52.410;13.242;2022-10-31T09:18:43;101699.59;;;13.69;100.00
70925;BME280;58577;52.410;13.242;2022-10-31T09:21:29;101698.03;;;14.33;100.00
70925;BME280;58577;52.410;13.242;2022-10-31T09:24:17;101695.44;;;14.97;97.17
70925;BME280;58577;52.410;13.242;2022-10-31T09:27:03;101689.63;;;15.64;92.96
70925;BME280;58577;52.410;13.242;2022-10-31T09:29:50;101695.63;;;15.94;88.51
70925;BME280;58577;52.410;13.242;2022-10-31T09:32:37;101696.91;;;16.07;87.28
70925;BME280;58577;52.410;13.242;2022-10-31T09:35:25;101706.09;;;15.70;91.02
70925;BME280;58577;52.410;13.242;2022-10-31T09:38:19;101710.59;;;15.26;91.34
70925;BME280;58577;52.410;13.242;2022-10-31T09:41:14;101712.78;;;14.77;94.94
70925;BME280;58577;52.410;13.242;2022-10-31T09:44:15;101709.72;;;14.52;98.62
70925;BME280;58577;52.410;13.242;2022-10-31T09:47:29;101710.84;;;14.31;98.36
70925;BME280;58577;52.410;13.242;2022-10-31T09:54:14;101717.06;;;14.97;96.96
70925;BME280;58577;52.410;13.242;2022-10-31T09:57:02;101718.13;;;16.20;91.10
70925;BME280;58577;52.410;13.242;2022-10-31T09:59:50;101718.84;;;16.65;84.65
70925;BME280;58577;52.410;13.242;2022-10-31T10:02:53;101710.22;;;17.20;82.07
70925;BME280;58577;52.410;13.242;2022-10-31T10:06:11;101706.69;;;17.61;83.68
70925;BME280;58577;52.410;13.242;2022-10-31T10:09:24;101705.50;;;17.96;78.06
70925;BME280;58577;52.410;13.242;2022-10-31T10:13:03;101699.91;;;18.06;78.42
70925;BME280;58577;52.410;13.242;2022-10-31T10:19:03;101690.59;;;17.35;79.38
70925;BME280;58577;52.410;13.242;2022-10-31T10:22:12;101695.47;;;17.80;78.85
70925;BME280;58577;52.410;13.242;2022-10-31T10:25:22;101701.94;;;17.14;80.69
70925;BME280;58577;52.410;13.242;2022-10-31T10:28:21;101686.50;;;17.72;80.07
70925;BME280;58577;52.410;13.242;2022-10-31T10:31:16;101682.44;;;17.84;79.82
70925;BME280;58577;52.410;13.242;2022-10-31T10:37:08;101691.03;;;18.20;77.41
70925;BME280;58577;52.410;13.242;2022-10-31T10:40:08;101686.97;;;18.56;76.41
70925;BME280;58577;52.410;13.242;2022-10-31T10:43:35;101689.06;;;18.45;76.00
70925;BME280;58577;52.410;13.242;2022-10-31T10:49:34;101681.06;;;18.04;77.78
70925;BME280;58577;52.410;13.242;2022-10-31T10:52:52;101679.13;;;18.30;78.44
70925;BME280;58577;52.410;13.242;2022-10-31T10:55:52;101671.34;;;18.18;78.75
70925;BME280;58577;52.410;13.242;2022-10-31T10:58:40;101673.47;;;18.39;75.43
70925;BME280;58577;52.410;13.242;2022-10-31T11:01:28;101677.22;;;18.78;74.99
70925;BME280;58577;52.410;13.242;2022-10-31T11:07:12;101675.19;;;18.80;75.41
70925;BME280;58577;52.410;13.242;2022-10-31T11:10:04;101676.09;;;18.64;75.54
70925;BME280;58577;52.410;13.242;2022-10-31T11:15:59;101665.97;;;18.50;75.91
70925;BME280;58577;52.410;13.242;2022-10-31T11:18:46;101665.41;;;18.62;75.48
70925;BME280;58577;52.410;13.242;2022-10-31T11:21:33;101660.06;;;18.69;75.92
70925;BME280;58577;52.410;13.242;2022-10-31T11:24:25;101658.97;;;18.55;77.02
70925;BME280;58577;52.410;13.242;2022-10-31T11:27:24;101661.78;;;18.31;77.83
70925;BME280;58577;52.410;13.242;2022-10-31T11:30:12;101653.78;;;18.37;76.65
70925;BME280;58577;52.410;13.242;2022-10-31T11:32:58;101657.34;;;18.38;78.57
70925;BME280;58577;52.410;13.242;2022-10-31T11:35:44;101653.34;;;18.17;77.81
70925;BME280;58577;52.410;13.242;2022-10-31T11:38:34;101656.38;;;18.22;77.47
70925;BME280;58577;52.410;13.242;2022-10-31T11:41:33;101658.88;;;18.80;75.81
70925;BME280;58577;52.410;13.242;2022-10-31T11:44:23;101659.28;;;18.60;75.09
70925;BME280;58577;52.410;13.242;2022-10-31T11:47:13;101654.47;;;19.02;76.50
70925;BME280;58577;52.410;13.242;2022-10-31T11:50:10;101653.56;;;19.10;74.76
70925;BME280;58577;52.410;13.242;2022-10-31T11:52:57;101650.25;;;19.22;73.98
70925;BME280;58577;52.410;13.242;2022-10-31T11:55:44;101647.16;;;19.25;74.19
70925;BME280;58577;52.410;13.242;2022-10-31T11:58:30;101648.50;;;19.30;74.22
70925;BME280;58577;52.410;13.242;2022-10-31T12:01:27;101642.41;;;19.04;73.88
70925;BME280;58577;52.410;13.242;2022-10-31T12:04:13;101638.47;;;18.84;74.63
70925;BME280;58577;52.410;13.242;2022-10-31T12:06:59;101643.34;;;19.12;73.64
70925;BME280;58577;52.410;13.242;2022-10-31T12:09:45;101639.28;;;19.31;72.62
70925;BME280;58577;52.410;13.242;2022-10-31T12:12:52;101639.19;;;19.24;72.86
70925;BME280;58577;52.410;13.242;2022-10-31T12:15:46;101625.63;;;19.39;72.98
70925;BME280;58577;52.410;13.242;2022-10-31T12:18:56;101629.59;;;19.66;74.38
70925;BME280;58577;52.410;13.242;2022-10-31T12:22:19;101637.34;;;19.77;71.42
70925;BME280;58577;52.410;13.242;2022-10-31T12:31:46;101619.75;;;19.65;72.76
70925;BME280;58577;52.410;13.242;2022-10-31T12:37:40;101615.31;;;18.88;74.10
70925;BME280;58577;52.410;13.242;2022-10-31T12:58:56;101601.09;;;19.24;74.79
70925;BME280;58577;52.410;13.242;2022-10-31T13:01:51;101601.78;;;19.03;75.78
70925;BME280;58577;52.410;13.242;2022-10-31T13:04:55;101603.72;;;18.63;77.81
70925;BME280;58577;52.410;13.242;2022-10-31T13:07:46;101603.13;;;18.53;77.17
70925;BME280;58577;52.410;13.242;2022-10-31T13:10:50;101600.00;;;18.24;78.36
70925;BME280;58577;52.410;13.242;2022-10-31T13:14:19;101588.19;;;18.09;80.73
70925;BME280;58577;52.410;13.242;2022-10-31T13:17:21;101591.69;;;17.70;81.50
70925;BME280;58577;52.410;13.242;2022-10-31T13:20:26;101585.94;;;17.57;83.42
70925;BME280;58577;52.410;13.242;2022-10-31T13:23:30;101584.97;;;17.41;84.83
70925;BME280;58577;52.410;13.242;2022-10-31T13:26:37;101588.69;;;17.40;84.83
70925;BME280;58577;52.410;13.242;2022-10-31T13:29:33;101585.66;;;17.27;85.21
70925;BME280;58577;52.410;13.242;2022-10-31T13:32:21;101586.31;;;17.21;85.16
70925;BME280;58577;52.410;13.242;2022-10-31T13:35:15;101584.97;;;17.17;85.98
70925;BME280;58577;52.410;13.242;2022-10-31T13:38:24;101586.16;;;16.98;87.11
70925;BME280;58577;52.410;13.242;2022-10-31T13:44:27;101583.72;;;16.70;88.70
70925;BME280;58577;52.410;13.242;2022-10-31T13:47:28;101583.72;;;16.54;88.87
70925;BME280;58577;52.410;13.242;2022-10-31T13:53:19;101581.44;;;16.33;91.21
70925;BME280;58577;52.410;13.242;2022-10-31T13:56:12;101577.97;;;16.14;92.11
70925;BME280;58577;52.410;13.242;2022-10-31T14:02:02;101576.50;;;15.85;93.68
70925;BME280;58577;52.410;13.242;2022-10-31T14:05:22;101574.44;;;15.79;94.64
70925;BME280;58577;52.410;13.242;2022-10-31T14:08:19;101574.28;;;15.81;95.31
70925;BME280;58577;52.410;13.242;2022-10-31T14:11:09;101571.25;;;15.58;96.08
70925;BME280;58577;52.410;13.242;2022-10-31T14:14:11;101564.00;;;15.32;97.81
70925;BME280;58577;52.410;13.242;2022-10-31T14:16:57;101560.22;;;15.25;98.35
70925;BME280;58577;52.410;13.242;2022-10-31T14:20:03;101568.56;;;15.13;99.70
70925;BME280;58577;52.410;13.242;2022-10-31T14:23:32;101559.16;;;15.00;100.00
70925;BME280;58577;52.410;13.242;2022-10-31T14:26:31;101558.41;;;14.89;100.00
70925;BME280;58577;52.410;13.242;2022-10-31T14:35:09;101560.63;;;14.58;100.00
70925;BME280;58577;52.410;13.242;2022-10-31T14:44:21;101546.94;;;14.24;100.00
70925;BME280;58577;52.410;13.242;2022-10-31T14:53:01;101548.31;;;14.00;100.00
70925;BME280;58577;52.410;13.242;2022-10-31T14:55:52;101550.16;;;14.00;100.00
70925;BME280;58577;52.410;13.242;2022-10-31T14:58:44;101549.75;;;13.94;100.00
70925;BME280;58577;52.410;13.242;2022-10-31T15:01:34;101546.59;;;13.81;100.00
70925;BME280;58577;52.410;13.242;2022-10-31T15:04:25;101547.47;;;13.72;100.00
70925;BME280;58577;52.410;13.242;2022-10-31T15:07:15;101541.97;;;13.64;100.00
70925;BME280;58577;52.410;13.242;2022-10-31T15:10:04;101538.44;;;13.53;100.00
70925;BME280;58577;52.410;13.242;2022-10-31T15:12:51;101534.94;;;13.43;100.00
70925;BME280;58577;52.410;13.242;2022-10-31T15:15:37;101531.38;;;13.43;100.00
70925;BME280;58577;52.410;13.242;2022-10-31T15:18:27;101537.50;;;13.35;100.00
70925;BME280;58577;52.410;13.242;2022-10-31T15:21:16;101534.97;;;13.33;100.00
70925;BME280;58577;52.410;13.242;2022-10-31T15:24:02;101530.13;;;13.37;100.00
70925;BME280;58577;52.410;13.242;2022-10-31T15:26:50;101531.81;;;13.38;100.00
70925;BME280;58577;52.410;13.242;2022-10-31T15:29:55;101527.44;;;13.27;100.00
70925;BME280;58577;52.410;13.242;2022-10-31T15:32:44;101527.31;;;13.09;100.00
70925;BME280;58577;52.410;13.242;2022-10-31T15:35:30;101527.31;;;13.09;100.00
70925;BME280;58577;52.410;13.242;2022-10-31T15:38:16;101527.59;;;13.06;100.00
70925;BME280;58577;52.410;13.242;2022-10-31T15:44:28;101522.38;;;12.95;100.00
70925;BME280;58577;52.410;13.242;2022-10-31T15:47:17;101525.06;;;13.05;100.00
70925;BME280;58577;52.410;13.242;2022-10-31T15:50:17;101518.97;;;13.03;100.00
70925;BME280;58577;52.410;13.242;2022-10-31T15:53:05;101523.06;;;12.97;100.00
70925;BME280;58577;52.410;13.242;2022-10-31T15:55:55;101524.78;;;12.88;100.00
70925;BME280;58577;52.410;13.242;2022-10-31T15:58:43;101525.34;;;12.82;100.00
70925;BME280;58577;52.410;13.242;2022-10-31T16:01:31;101523.38;;;12.74;100.00
70925;BME280;58577;52.410;13.242;2022-10-31T16:04:22;101520.97;;;12.71;100.00
70925;BME280;58577;52.410;13.242;2022-10-31T16:07:15;101521.38;;;12.76;100.00
70925;BME280;58577;52.410;13.242;2022-10-31T16:10:22;101523.38;;;12.74;100.00
70925;BME280;58577;52.410;13.242;2022-10-31T16:13:09;101517.00;;;12.66;100.00
70925;BME280;58577;52.410;13.242;2022-10-31T16:15:57;101520.66;;;12.65;100.00
70925;BME280;58577;52.410;13.242;2022-10-31T16:18:44;101521.53;;;12.65;100.00
70925;BME280;58577;52.410;13.242;2022-10-31T16:21:36;101519.56;;;12.57;100.00
70925;BME280;58577;52.410;13.242;2022-10-31T16:24:26;101520.53;;;12.56;100.00
70925;BME280;58577;52.410;13.242;2022-10-31T16:27:22;101523.66;;;12.71;100.00